createdAt,value
2019-06-19T00:02:03.180Z,24.68
2019-06-19T00:04:33.058Z,24.66
2019-06-19T00:07:03.483Z,24.57
2019-06-19T00:09:33.632Z,24.32
2019-06-19T00:12:03.470Z,24.44
2019-06-19T00:14:34.223Z,24.48
2019-06-19T00:17:04.072Z,24.50
2019-06-19T00:19:36.853Z,24.43
2019-06-19T00:22:04.968Z,24.35
2019-06-19T00:24:34.537Z,24.32
2019-06-19T00:27:04.044Z,24.26
2019-06-19T00:29:40.205Z,24.16
2019-06-19T00:32:24.277Z,24.13
2019-06-19T00:35:06.802Z,24.09
2019-06-19T00:37:36.449Z,24.10
2019-06-19T00:40:20.826Z,24.19
2019-06-19T00:42:51.588Z,24.23
2019-06-19T00:45:21.545Z,24.06
2019-06-19T00:47:51.479Z,23.99
2019-06-19T00:50:21.829Z,24.02
2019-06-19T00:52:51.829Z,24.01
2019-06-19T00:55:36.525Z,23.96
2019-06-19T00:58:06.852Z,23.79
2019-06-19T01:00:36.595Z,23.71
2019-06-19T01:03:06.302Z,23.60
2019-06-19T01:05:35.845Z,23.67
2019-06-19T01:08:05.498Z,23.62
2019-06-19T01:10:35.159Z,23.65
2019-06-19T01:13:04.773Z,23.62
2019-06-19T01:15:34.506Z,23.66
2019-06-19T01:18:04.361Z,23.49
2019-06-19T01:20:34.036Z,23.32
2019-06-19T01:23:03.655Z,23.37
2019-06-19T01:25:33.260Z,23.33
2019-06-19T01:28:02.841Z,23.32
2019-06-19T01:30:32.557Z,23.34
2019-06-19T01:33:02.214Z,23.36
2019-06-19T01:35:32.020Z,23.47
2019-06-19T01:38:01.938Z,23.42
2019-06-19T01:40:32.244Z,23.33
2019-06-19T01:43:02.498Z,23.23
2019-06-19T01:45:32.204Z,23.23
2019-06-19T01:48:01.852Z,23.15
2019-06-19T01:50:31.475Z,23.05
2019-06-19T01:53:55.692Z,22.88
2019-06-19T01:56:25.298Z,22.76
2019-06-19T01:58:54.858Z,22.56
2019-06-19T02:01:24.778Z,22.49
2019-06-19T02:04:13.781Z,22.42
2019-06-19T02:06:43.466Z,22.45
2019-06-19T02:09:13.122Z,22.43
2019-06-19T02:11:42.711Z,22.34
2019-06-19T02:14:12.422Z,22.27
2019-06-19T02:16:42.049Z,22.16
2019-06-19T02:19:11.746Z,22.20
2019-06-19T02:21:43.971Z,22.29
2019-06-19T02:24:13.577Z,22.32
2019-06-19T02:26:43.183Z,22.26
2019-06-19T02:29:12.782Z,22.15
2019-06-19T02:31:42.695Z,22.00
2019-06-19T02:34:13.083Z,22.22
2019-06-19T02:36:43.730Z,22.26
2019-06-19T02:39:13.612Z,22.23
2019-06-19T02:41:43.251Z,22.32
2019-06-19T02:44:14.440Z,22.09
2019-06-19T02:46:44.733Z,22.20
2019-06-19T02:49:14.384Z,22.12
2019-06-19T02:51:44.080Z,21.99
2019-06-19T02:54:14.313Z,22.14
2019-06-19T02:56:43.965Z,22.01
2019-06-19T02:59:13.683Z,22.06
2019-06-19T03:01:43.405Z,22.10
2019-06-19T03:04:15.195Z,22.21
2019-06-19T03:06:44.272Z,22.13
2019-06-19T03:09:13.881Z,22.06
2019-06-19T03:11:43.524Z,22.11
2019-06-19T03:14:13.057Z,21.91
2019-06-19T03:16:42.976Z,21.64
2019-06-19T03:19:12.560Z,21.84
2019-06-19T03:21:42.100Z,21.81
2019-06-19T03:24:11.621Z,21.85
2019-06-19T03:26:41.219Z,21.98
2019-06-19T03:29:10.906Z,22.06
2019-06-19T03:31:40.502Z,22.22
2019-06-19T03:34:10.061Z,22.23
2019-06-19T03:36:39.653Z,22.12
2019-06-19T03:39:09.249Z,22.26
2019-06-19T03:41:38.780Z,22.14
2019-06-19T03:44:08.386Z,22.07
2019-06-19T03:46:38.380Z,22.20
2019-06-19T03:49:07.898Z,22.19
2019-06-19T03:51:43.392Z,22.27
2019-06-19T03:54:12.904Z,22.38
2019-06-19T03:56:42.485Z,22.45
2019-06-19T03:59:12.104Z,22.46
2019-06-19T04:01:49.287Z,22.59
2019-06-19T04:04:13.431Z,22.64
2019-06-19T04:06:43.039Z,22.79
2019-06-19T04:09:12.579Z,22.85
2019-06-19T04:11:42.109Z,22.63
2019-06-19T04:14:12.922Z,22.67
2019-06-19T04:16:42.500Z,22.88
2019-06-19T04:19:12.077Z,23.04
2019-06-19T04:21:41.626Z,23.11
2019-06-19T04:24:11.295Z,22.96
2019-06-19T04:26:41.434Z,23.19
2019-06-19T04:29:25.707Z,23.22
2019-06-19T04:32:05.938Z,23.39
2019-06-19T04:34:26.536Z,23.66
2019-06-19T04:36:56.245Z,23.60
2019-06-19T04:39:25.853Z,23.75
2019-06-19T04:41:55.462Z,23.95
2019-06-19T04:44:26.957Z,23.96
2019-06-19T04:46:56.596Z,24.24
2019-06-19T04:49:26.223Z,24.23
2019-06-19T04:51:55.908Z,24.22
2019-06-19T04:54:25.551Z,24.52
2019-06-19T04:56:55.170Z,24.55
2019-06-19T04:59:24.943Z,24.74
2019-06-19T05:01:54.780Z,24.78
2019-06-19T05:04:24.444Z,24.48
2019-06-19T05:06:55.184Z,24.79
2019-06-19T05:09:24.831Z,25.13
2019-06-19T05:11:54.394Z,25.40
2019-06-19T05:14:23.936Z,25.37
2019-06-19T05:16:53.562Z,25.48
2019-06-19T05:19:23.074Z,25.63
2019-06-19T05:21:52.710Z,25.80
2019-06-19T05:24:22.216Z,25.86
2019-06-19T05:26:51.758Z,26.00
2019-06-19T05:29:21.443Z,26.05
2019-06-19T05:31:51.399Z,26.22
2019-06-19T05:34:20.993Z,26.21
2019-06-19T05:36:50.624Z,26.05
2019-06-19T05:39:20.164Z,26.21
2019-06-19T05:41:49.678Z,25.97
2019-06-19T05:44:19.362Z,26.03
2019-06-19T05:46:49.034Z,25.73
2019-06-19T05:49:18.912Z,25.66
2019-06-19T05:51:49.156Z,25.95
2019-06-19T05:54:18.768Z,26.33
2019-06-19T05:56:48.382Z,26.15
2019-06-19T05:59:19.494Z,25.97
2019-06-19T06:01:49.165Z,26.08
2019-06-19T06:04:18.879Z,25.93
2019-06-19T06:06:48.648Z,26.43
2019-06-19T06:09:18.264Z,26.49
2019-06-19T06:11:47.883Z,26.65
2019-06-19T06:14:17.727Z,26.90
2019-06-19T06:16:47.265Z,27.07
2019-06-19T06:19:16.760Z,27.04
2019-06-19T06:21:47.942Z,27.12
2019-06-19T06:24:17.628Z,26.86
2019-06-19T06:26:47.694Z,26.98
2019-06-19T06:29:17.443Z,27.19
2019-06-19T06:31:47.043Z,27.09
2019-06-19T06:34:16.830Z,27.41
2019-06-19T06:36:46.827Z,27.51
2019-06-19T06:39:16.491Z,27.61
2019-06-19T06:41:46.065Z,27.90
2019-06-19T06:44:15.727Z,27.84
2019-06-19T06:46:45.255Z,27.75
2019-06-19T06:49:14.891Z,28.04
2019-06-19T06:51:44.517Z,28.37
2019-06-19T06:54:14.120Z,28.46
2019-06-19T06:56:43.788Z,28.51
2019-06-19T06:59:14.382Z,28.60
2019-06-19T07:01:43.973Z,28.80
2019-06-19T07:04:13.653Z,28.80
2019-06-19T07:06:43.190Z,28.70
2019-06-19T07:09:12.784Z,28.57
2019-06-19T07:11:42.310Z,28.70
2019-06-19T07:14:11.845Z,29.05
2019-06-19T07:16:41.507Z,29.04
2019-06-19T07:19:11.108Z,29.24
2019-06-19T07:21:40.858Z,29.05
2019-06-19T07:24:10.371Z,29.01
2019-06-19T07:26:52.185Z,28.96
2019-06-19T07:29:11.328Z,29.08
2019-06-19T07:31:41.016Z,29.28
2019-06-19T07:34:10.622Z,29.52
2019-06-19T07:36:40.155Z,29.81
2019-06-19T07:39:09.681Z,30.11
2019-06-19T07:41:39.251Z,29.90
2019-06-19T07:44:09.205Z,29.92
2019-06-19T07:46:38.725Z,30.02
2019-06-19T07:49:08.389Z,29.71
2019-06-19T07:51:38.016Z,29.78
2019-06-19T07:54:07.516Z,30.31
2019-06-19T07:56:37.023Z,30.16
2019-06-19T07:59:06.768Z,30.04
2019-06-19T08:01:36.383Z,30.41
2019-06-19T08:04:05.971Z,30.34
2019-06-19T08:06:36.560Z,30.33
2019-06-19T08:09:07.926Z,30.62
2019-06-19T08:11:37.517Z,30.39
2019-06-19T08:14:07.236Z,30.29
2019-06-19T08:16:36.901Z,30.59
2019-06-19T08:19:06.567Z,30.96
2019-06-19T08:21:36.842Z,31.08
2019-06-19T08:24:06.648Z,31.00
2019-06-19T08:26:36.213Z,31.12
2019-06-19T08:29:06.054Z,31.00
2019-06-19T08:31:35.596Z,31.39
2019-06-19T08:34:14.416Z,31.65
2019-06-19T08:36:36.580Z,31.64
2019-06-19T08:39:08.539Z,32.08
2019-06-19T08:41:38.309Z,31.92
2019-06-19T08:44:09.064Z,31.97
2019-06-19T08:46:38.594Z,31.86
2019-06-19T08:49:08.240Z,31.55
2019-06-19T08:51:37.799Z,31.59
2019-06-19T08:54:07.418Z,31.47
2019-06-19T08:56:37.024Z,31.32
2019-06-19T08:59:06.746Z,31.16
2019-06-19T09:01:36.406Z,31.56
2019-06-19T09:04:06.144Z,31.41
2019-06-19T09:06:37.861Z,31.75
2019-06-19T09:09:10.611Z,32.20
2019-06-19T09:11:41.835Z,32.31
2019-06-19T09:14:11.357Z,32.96
2019-06-19T09:16:41.081Z,32.50
2019-06-19T09:19:10.591Z,32.27
2019-06-19T09:21:40.323Z,31.93
2019-06-19T09:24:09.869Z,31.92
2019-06-19T09:26:39.555Z,32.00
2019-06-19T09:29:09.388Z,32.00
2019-06-19T09:31:41.522Z,32.62
2019-06-19T09:34:11.060Z,32.69
2019-06-19T09:36:40.969Z,32.84
2019-06-19T09:39:10.679Z,33.17
2019-06-19T09:41:40.231Z,33.27
2019-06-19T09:44:09.811Z,33.32
2019-06-19T09:46:39.456Z,33.27
2019-06-19T09:49:09.542Z,33.29
2019-06-19T09:51:39.205Z,33.20
2019-06-19T09:54:08.828Z,33.56
2019-06-19T09:56:38.395Z,33.37
2019-06-19T09:59:07.990Z,33.17
2019-06-19T10:01:37.504Z,33.45
2019-06-19T10:04:07.450Z,33.25
2019-06-19T10:06:37.790Z,32.91
2019-06-19T10:09:09.401Z,32.59
2019-06-19T10:11:38.983Z,32.47
2019-06-19T10:14:09.064Z,32.44
2019-06-19T10:16:38.723Z,32.53
2019-06-19T10:19:08.438Z,32.60
2019-06-19T10:21:38.050Z,32.83
2019-06-19T10:24:07.570Z,33.33
2019-06-19T10:26:37.085Z,33.26
2019-06-19T10:29:06.846Z,32.51
2019-06-19T10:31:36.432Z,32.88
2019-06-19T10:34:06.221Z,32.93
2019-06-19T10:36:36.090Z,33.14
2019-06-19T10:39:08.115Z,33.55
2019-06-19T10:41:37.722Z,33.90
2019-06-19T10:44:07.432Z,33.78
2019-06-19T10:46:41.745Z,34.31
2019-06-19T10:49:08.367Z,34.26
2019-06-19T10:51:41.526Z,33.88
2019-06-19T10:54:11.089Z,33.34
2019-06-19T10:56:43.378Z,33.38
2019-06-19T10:59:12.935Z,33.70
2019-06-19T11:01:42.533Z,34.05
2019-06-19T11:04:12.150Z,33.97
2019-06-19T11:06:42.674Z,33.80
2019-06-19T11:09:12.506Z,33.60
2019-06-19T11:11:42.200Z,33.84
2019-06-19T11:14:11.768Z,34.06
2019-06-19T11:16:41.296Z,34.09
2019-06-19T11:19:10.832Z,33.95
2019-06-19T11:21:40.512Z,34.30
2019-06-19T11:24:10.093Z,34.81
2019-06-19T11:26:39.585Z,34.25
2019-06-19T11:29:10.007Z,34.55
2019-06-19T11:31:39.974Z,34.69
2019-06-19T11:34:09.546Z,34.87
2019-06-19T11:36:39.162Z,34.80
2019-06-19T11:39:09.714Z,35.45
2019-06-19T11:41:39.341Z,35.03
2019-06-19T11:44:08.956Z,34.22
2019-06-19T11:46:38.604Z,34.42
2019-06-19T11:49:08.188Z,34.39
2019-06-19T11:51:38.269Z,33.99
2019-06-19T11:54:07.946Z,33.61
2019-06-19T11:56:37.600Z,33.57
2019-06-19T11:59:08.294Z,34.01
2019-06-19T12:01:37.839Z,34.39
2019-06-19T12:04:07.386Z,33.87
2019-06-19T12:06:37.154Z,33.60
2019-06-19T12:09:09.346Z,34.11
2019-06-19T12:11:39.132Z,34.69
2019-06-19T12:14:18.076Z,34.73
2019-06-19T12:16:40.497Z,34.50
2019-06-19T12:19:10.049Z,34.45
2019-06-19T12:21:39.672Z,34.62
2019-06-19T12:24:09.338Z,34.91
2019-06-19T12:26:39.142Z,34.53
2019-06-19T12:29:09.017Z,34.36
2019-06-19T12:31:38.784Z,34.33
2019-06-19T12:34:08.540Z,34.56
2019-06-19T12:36:38.179Z,34.43
2019-06-19T12:39:10.117Z,34.03
2019-06-19T12:41:39.712Z,34.01
2019-06-19T12:44:09.324Z,34.42
2019-06-19T12:46:39.075Z,34.96
2019-06-19T12:49:08.653Z,35.33
2019-06-19T12:51:38.214Z,34.79
2019-06-19T12:54:07.750Z,34.97
2019-06-19T12:56:37.261Z,34.51
2019-06-19T12:59:07.002Z,34.31
2019-06-19T13:01:36.580Z,34.71
2019-06-19T13:04:06.315Z,34.43
2019-06-19T13:06:46.670Z,33.95
2019-06-19T13:09:08.968Z,34.36
2019-06-19T13:11:38.483Z,34.71
2019-06-19T13:14:08.290Z,34.98
2019-06-19T13:16:37.920Z,35.22
2019-06-19T13:19:07.626Z,35.32
2019-06-19T13:21:37.459Z,34.91
2019-06-19T13:24:07.234Z,34.92
2019-06-19T13:26:36.825Z,34.53
2019-06-19T13:29:07.421Z,34.92
2019-06-19T13:31:37.013Z,35.46
2019-06-19T13:34:06.658Z,34.61
2019-06-19T13:36:36.509Z,34.85
2019-06-19T13:39:08.602Z,35.32
2019-06-19T13:41:38.289Z,35.35
2019-06-19T13:44:07.910Z,35.09
2019-06-19T13:46:37.498Z,35.32
2019-06-19T13:49:07.087Z,35.49
2019-06-19T13:51:36.634Z,34.94
2019-06-19T13:54:06.490Z,35.21
2019-06-19T13:56:36.296Z,35.01
2019-06-19T13:59:06.529Z,34.77
2019-06-19T14:01:36.049Z,35.69
2019-06-19T14:04:05.723Z,35.91
2019-06-19T14:06:35.407Z,35.54
2019-06-19T14:09:06.497Z,35.83
2019-06-19T14:11:36.158Z,35.89
2019-06-19T14:14:06.608Z,35.85
2019-06-19T14:16:36.146Z,35.36
2019-06-19T14:19:05.804Z,35.05
2019-06-19T14:21:35.637Z,35.01
2019-06-19T14:24:05.293Z,34.86
2019-06-19T14:26:34.959Z,34.85
2019-06-19T14:29:04.725Z,34.76
2019-06-19T14:31:34.290Z,34.73
2019-06-19T14:34:03.902Z,34.89
2019-06-19T14:36:33.517Z,35.26
2019-06-19T14:39:03.539Z,34.91
2019-06-19T14:41:33.127Z,35.42
2019-06-19T14:44:02.966Z,35.56
2019-06-19T14:46:32.768Z,35.24
2019-06-19T14:49:02.384Z,34.68
2019-06-19T14:51:31.991Z,34.83
2019-06-19T14:54:01.497Z,34.90
2019-06-19T14:56:31.057Z,34.86
2019-06-19T14:59:00.635Z,34.79
2019-06-19T15:01:30.157Z,34.56
2019-06-19T15:03:59.683Z,34.47
2019-06-19T15:06:29.520Z,34.84
2019-06-19T15:08:59.069Z,35.01
2019-06-19T15:11:28.587Z,34.64
2019-06-19T15:13:58.168Z,34.48
2019-06-19T15:16:27.830Z,34.28
2019-06-19T15:18:57.376Z,34.17
2019-06-19T15:21:27.003Z,34.00
2019-06-19T15:23:56.590Z,33.76
2019-06-19T15:26:26.166Z,33.57
2019-06-19T15:28:56.182Z,33.79
2019-06-19T15:31:25.720Z,33.61
2019-06-19T15:33:55.234Z,33.66
2019-06-19T15:36:24.922Z,33.64
2019-06-19T15:38:54.449Z,33.40
2019-06-19T15:41:23.952Z,33.41
2019-06-19T15:43:54.084Z,33.77
2019-06-19T15:46:28.050Z,33.89
2019-06-19T15:48:55.036Z,33.65
2019-06-19T15:51:24.955Z,33.34
2019-06-19T15:53:54.571Z,32.90
2019-06-19T15:56:24.124Z,31.11
2019-06-19T15:58:53.684Z,30.36
2019-06-19T16:01:23.718Z,30.00
2019-06-19T16:03:53.812Z,29.61
2019-06-19T16:06:23.362Z,29.03
2019-06-19T16:08:52.900Z,28.35
2019-06-19T16:11:22.419Z,27.93
2019-06-19T16:13:54.946Z,27.78
2019-06-19T16:16:24.461Z,27.65
2019-06-19T16:18:54.055Z,27.69
2019-06-19T16:21:23.757Z,27.75
2019-06-19T16:23:53.719Z,27.39
2019-06-19T16:26:25.161Z,27.28
2019-06-19T16:28:54.681Z,27.41
2019-06-19T16:31:24.292Z,27.73
2019-06-19T16:33:53.830Z,27.99
2019-06-19T16:36:23.900Z,27.86
2019-06-19T16:38:53.565Z,28.12
2019-06-19T16:41:23.165Z,28.54
2019-06-19T16:43:52.706Z,28.71
2019-06-19T16:46:22.287Z,28.59
2019-06-19T16:48:54.367Z,28.73
2019-06-19T16:51:23.972Z,29.26
2019-06-19T16:53:53.575Z,29.48
2019-06-19T16:56:23.329Z,29.60
2019-06-19T16:58:52.910Z,29.78
2019-06-19T17:01:22.446Z,29.77
2019-06-19T17:03:51.992Z,29.94
2019-06-19T17:06:21.569Z,30.00
2019-06-19T17:09:03.889Z,30.06
2019-06-19T17:11:22.916Z,30.06
2019-06-19T17:13:52.728Z,30.27
2019-06-19T17:16:22.243Z,29.90
2019-06-19T17:18:51.803Z,29.75
2019-06-19T17:21:21.751Z,29.17
2019-06-19T17:23:51.357Z,28.83
2019-06-19T17:26:20.928Z,29.22
2019-06-19T17:28:50.678Z,29.32
2019-06-19T17:31:20.420Z,29.51
2019-06-19T17:33:49.995Z,29.15
2019-06-19T17:36:20.078Z,29.16
2019-06-19T17:38:49.726Z,29.17
2019-06-19T17:41:19.590Z,29.41
2019-06-19T17:43:49.485Z,29.62
2019-06-19T17:46:19.091Z,29.17
2019-06-19T17:48:48.810Z,28.84
2019-06-19T17:51:18.505Z,28.92
2019-06-19T17:53:48.077Z,28.79
2019-06-19T17:56:17.620Z,29.12
2019-06-19T17:58:47.435Z,29.22
2019-06-19T18:01:16.951Z,29.28
2019-06-19T18:03:46.553Z,29.44
2019-06-19T18:06:16.336Z,29.53
2019-06-19T18:08:45.862Z,29.16
2019-06-19T18:11:16.051Z,29.09
2019-06-19T18:14:06.373Z,28.94
2019-06-19T18:16:37.171Z,29.14
2019-06-19T18:19:07.029Z,29.47
2019-06-19T18:21:36.762Z,29.28
2019-06-19T18:24:06.467Z,29.15
2019-06-19T18:26:36.161Z,29.22
2019-06-19T18:29:05.868Z,29.41
2019-06-19T18:31:35.596Z,29.21
2019-06-19T18:34:06.114Z,29.14
2019-06-19T18:36:35.628Z,29.15
2019-06-19T18:39:08.151Z,29.04
2019-06-19T18:41:37.891Z,29.08
2019-06-19T18:44:07.668Z,29.16
2019-06-19T18:46:37.240Z,28.99
2019-06-19T18:49:06.850Z,29.20
2019-06-19T18:51:36.461Z,29.15
2019-06-19T18:54:06.087Z,29.24
2019-06-19T18:56:35.737Z,29.29
2019-06-19T18:59:05.349Z,29.23
2019-06-19T19:01:34.923Z,28.98
2019-06-19T19:04:04.610Z,29.02
2019-06-19T19:06:34.789Z,29.09
2019-06-19T19:09:06.167Z,28.99
2019-06-19T19:11:35.882Z,29.13
2019-06-19T19:14:05.987Z,29.08
2019-06-19T19:16:35.504Z,29.05
2019-06-19T19:19:05.580Z,28.88
2019-06-19T19:21:35.216Z,28.87
2019-06-19T19:24:04.863Z,28.99
2019-06-19T19:26:34.748Z,28.98
2019-06-19T19:29:05.047Z,28.70
2019-06-19T19:31:34.640Z,28.70
2019-06-19T19:34:04.357Z,28.58
2019-06-19T19:36:34.010Z,28.51
2019-06-19T19:39:03.600Z,28.29
2019-06-19T19:41:34.089Z,28.34
2019-06-19T19:44:03.963Z,28.25
2019-06-19T19:46:33.911Z,28.13
2019-06-19T19:49:03.550Z,28.05
2019-06-19T19:51:33.512Z,27.78
2019-06-19T19:54:03.196Z,27.92
2019-06-19T19:56:32.786Z,27.89
2019-06-19T19:59:02.411Z,27.84
2019-06-19T20:01:34.638Z,27.66
2019-06-19T20:04:04.327Z,27.65
2019-06-19T20:06:33.918Z,27.65
2019-06-19T20:09:03.522Z,27.39
2019-06-19T20:11:33.235Z,27.37
2019-06-19T20:14:03.570Z,27.44
2019-06-19T20:16:33.093Z,27.15
2019-06-19T20:19:02.821Z,27.03
2019-06-19T20:21:32.441Z,26.89
2019-06-19T20:24:03.354Z,26.65
2019-06-19T20:26:32.914Z,26.52
2019-06-19T20:29:04.294Z,26.45
2019-06-19T20:31:33.712Z,26.55
2019-06-19T20:34:03.346Z,26.51
2019-06-19T20:36:34.000Z,26.26
2019-06-19T20:39:15.443Z,26.02
2019-06-19T20:41:34.961Z,25.89
2019-06-19T20:44:05.079Z,25.99
2019-06-19T20:46:34.920Z,26.02
2019-06-19T20:49:04.631Z,25.83
2019-06-19T20:51:34.285Z,26.00
2019-06-19T20:54:04.033Z,25.94
2019-06-19T20:56:33.624Z,26.13
2019-06-19T20:59:15.417Z,25.98
2019-06-19T21:01:34.586Z,25.96
2019-06-19T21:04:06.188Z,25.83
2019-06-19T21:06:35.740Z,25.34
2019-06-19T21:09:08.818Z,25.27
2019-06-19T21:11:38.408Z,25.35
2019-06-19T21:14:10.298Z,25.28
2019-06-19T21:16:39.855Z,25.23
2019-06-19T21:19:09.376Z,25.01
2019-06-19T21:21:39.015Z,25.06
2019-06-19T21:24:08.571Z,25.12
2019-06-19T21:26:38.137Z,25.28
2019-06-19T21:29:07.674Z,25.36
2019-06-19T21:31:39.014Z,25.41
2019-06-19T21:34:09.331Z,25.53
2019-06-19T21:36:39.024Z,25.56
2019-06-19T21:39:08.903Z,25.73
2019-06-19T21:41:40.767Z,25.72
2019-06-19T21:44:18.847Z,25.72
2019-06-19T21:46:41.700Z,25.67
2019-06-19T21:49:11.687Z,25.59
2019-06-19T21:51:42.781Z,25.50
2019-06-19T21:54:12.307Z,25.43
2019-06-19T21:56:41.837Z,25.26
2019-06-19T21:59:11.471Z,25.29
2019-06-19T22:01:41.329Z,25.32
2019-06-19T22:04:10.995Z,25.39
2019-06-19T22:06:53.239Z,25.20
2019-06-19T22:09:22.744Z,25.07
2019-06-19T22:11:54.758Z,24.87
2019-06-19T22:14:23.829Z,24.66
2019-06-19T22:16:53.357Z,24.20
2019-06-19T22:19:22.954Z,24.30
2019-06-19T22:21:52.793Z,24.39
2019-06-19T22:24:22.438Z,24.25
2019-06-19T22:26:52.100Z,24.07
2019-06-19T22:29:22.103Z,24.17
2019-06-19T22:31:51.710Z,23.90
2019-06-19T22:34:21.424Z,23.91
2019-06-19T22:36:51.119Z,23.71
2019-06-19T22:39:20.849Z,23.79
2019-06-19T22:41:50.426Z,23.93
2019-06-19T22:44:20.526Z,23.97
2019-06-19T22:46:50.221Z,23.84
2019-06-19T22:49:19.886Z,23.62
2019-06-19T22:51:49.657Z,23.68
2019-06-19T22:54:19.309Z,23.43
2019-06-19T22:56:48.863Z,23.55
2019-06-19T22:59:18.889Z,23.68
2019-06-19T23:01:56.656Z,23.62
2019-06-19T23:04:26.245Z,23.24
2019-06-19T23:06:55.914Z,22.53
2019-06-19T23:09:25.567Z,21.63
2019-06-19T23:11:55.389Z,21.32
2019-06-19T23:14:24.930Z,21.41
2019-06-19T23:16:54.847Z,21.19
2019-06-19T23:19:24.408Z,21.51
2019-06-19T23:21:53.913Z,21.73
2019-06-19T23:24:23.415Z,21.79
2019-06-19T23:26:53.034Z,21.53
2019-06-19T23:29:22.562Z,21.73
2019-06-19T23:31:52.196Z,21.83
2019-06-19T23:34:21.778Z,21.49
2019-06-19T23:36:51.437Z,21.57
2019-06-19T23:39:20.954Z,21.42
2019-06-19T23:41:50.495Z,21.54
2019-06-19T23:44:21.565Z,21.76
2019-06-19T23:46:51.350Z,21.73
2019-06-19T23:49:20.905Z,21.66
2019-06-19T23:51:50.529Z,21.66
2019-06-19T23:54:20.168Z,21.98
2019-06-19T23:56:49.962Z,22.14
2019-06-19T23:59:19.458Z,21.80
